Skip Navigation Links
NOAA logo - Click to go to the NOAA homepage
NOAA's National Weather Service
Alaska Aviation Weather Unit
  NWS logo - Click to go to the NWS homepage
Left Navbar Graphic     21 AKDT = 05 GMT

   
NOAA is celebrating 200 years of science, service, and stewardship. Visit the NOAA 200th celebration Web site to learn more.
USA.gov is the U.S. Government's official Web portal to all Federal, state and local government Web resources and services.
Facebook
NWS on Facebook

AAWU Home :: Display TAF Add Bookmark
TAF PABR 262320Z 2700/2724 08012KT P6SM -SHSN OVC010=
PABR 262353Z 07010KT 10SM OVC011 M13/M17 A3010=

PABR 270053Z 08010KT 10SM OVC011 M13/M17 A3010=

PABR 270153Z COR 10010KT 10SM OVC010 M13/M17 A3009=

PABR 270253Z 10009KT 10SM OVC011 M14/M17 A3011=

PABR 270353Z 09009KT 10SM OVC010 M14/M17 A3010=

METAR PABR 270453Z 09009KT 10SM OVC010 M14/M17 A3010 RMK AO2
 SNB17E26 SLP195 P0000 T11391167=


NOAA's National Weather Service
Alaska Aviation Weather Unit
6930 Sand Lake Road
Anchorage, AK 99502-1845
Disclaimer
Credits
Glossary
Privacy Policy
About Us
Career Opportunities
Contact AAWU Internet Services Site last modified: April, 17th 2012